sensor_id;sensor_type;location;lat;lon;timestamp;P1;durP1;ratioP1;P2;durP2;ratioP2
22894;SDS011;11614;52.494;6.976;2023-10-31T00:00:49;33.77;;;19.60;;
22894;SDS011;11614;52.494;6.976;2023-10-31T00:03:15;30.13;;;16.57;;
22894;SDS011;11614;52.494;6.976;2023-10-31T00:05:41;39.87;;;23.23;;
22894;SDS011;11614;52.494;6.976;2023-10-31T00:08:08;38.10;;;21.67;;
22894;SDS011;11614;52.494;6.976;2023-10-31T00:10:34;33.83;;;20.57;;
22894;SDS011;11614;52.494;6.976;2023-10-31T00:13:00;35.00;;;20.50;;
22894;SDS011;11614;52.494;6.976;2023-10-31T00:15:26;34.00;;;21.77;;
22894;SDS011;11614;52.494;6.976;2023-10-31T00:17:54;35.70;;;22.03;;
22894;SDS011;11614;52.494;6.976;2023-10-31T00:20:20;35.93;;;21.50;;
22894;SDS011;11614;52.494;6.976;2023-10-31T00:22:46;37.37;;;21.67;;
22894;SDS011;11614;52.494;6.976;2023-10-31T00:25:12;35.20;;;19.50;;
22894;SDS011;11614;52.494;6.976;2023-10-31T00:27:38;38.90;;;23.77;;
22894;SDS011;11614;52.494;6.976;2023-10-31T00:30:04;37.23;;;22.53;;
22894;SDS011;11614;52.494;6.976;2023-10-31T00:32:30;34.37;;;21.03;;
22894;SDS011;11614;52.494;6.976;2023-10-31T00:34:56;37.67;;;21.00;;
22894;SDS011;11614;52.494;6.976;2023-10-31T00:37:22;36.80;;;21.37;;
22894;SDS011;11614;52.494;6.976;2023-10-31T00:39:48;35.33;;;21.37;;
22894;SDS011;11614;52.494;6.976;2023-10-31T00:42:14;39.30;;;22.23;;
22894;SDS011;11614;52.494;6.976;2023-10-31T00:44:40;39.67;;;21.87;;
22894;SDS011;11614;52.494;6.976;2023-10-31T00:47:06;36.67;;;20.57;;
22894;SDS011;11614;52.494;6.976;2023-10-31T00:49:32;36.73;;;20.57;;
22894;SDS011;11614;52.494;6.976;2023-10-31T00:51:58;39.93;;;21.73;;
22894;SDS011;11614;52.494;6.976;2023-10-31T00:54:24;38.53;;;23.53;;
22894;SDS011;11614;52.494;6.976;2023-10-31T00:56:50;35.70;;;21.37;;
22894;SDS011;11614;52.494;6.976;2023-10-31T00:59:15;37.53;;;22.63;;
22894;SDS011;11614;52.494;6.976;2023-10-31T01:01:42;41.80;;;26.43;;
22894;SDS011;11614;52.494;6.976;2023-10-31T01:04:08;42.27;;;22.57;;
22894;SDS011;11614;52.494;6.976;2023-10-31T01:06:39;40.00;;;21.23;;
22894;SDS011;11614;52.494;6.976;2023-10-31T01:09:06;37.50;;;22.17;;
22894;SDS011;11614;52.494;6.976;2023-10-31T01:11:32;34.17;;;20.50;;
22894;SDS011;11614;52.494;6.976;2023-10-31T01:13:57;40.53;;;24.07;;
22894;SDS011;11614;52.494;6.976;2023-10-31T01:16:24;33.00;;;19.63;;
22894;SDS011;11614;52.494;6.976;2023-10-31T01:18:49;36.23;;;20.17;;
22894;SDS011;11614;52.494;6.976;2023-10-31T01:21:15;39.60;;;21.83;;
22894;SDS011;11614;52.494;6.976;2023-10-31T01:23:41;32.57;;;18.60;;
22894;SDS011;11614;52.494;6.976;2023-10-31T01:26:07;33.23;;;17.93;;
22894;SDS011;11614;52.494;6.976;2023-10-31T01:28:34;31.23;;;16.97;;
22894;SDS011;11614;52.494;6.976;2023-10-31T01:30:59;36.83;;;19.63;;
22894;SDS011;11614;52.494;6.976;2023-10-31T01:33:26;29.37;;;17.27;;
22894;SDS011;11614;52.494;6.976;2023-10-31T01:35:52;28.37;;;16.13;;
22894;SDS011;11614;52.494;6.976;2023-10-31T01:38:18;27.20;;;15.97;;
22894;SDS011;11614;52.494;6.976;2023-10-31T01:40:44;23.77;;;14.93;;
22894;SDS011;11614;52.494;6.976;2023-10-31T01:43:10;24.17;;;12.33;;
22894;SDS011;11614;52.494;6.976;2023-10-31T01:45:36;19.47;;;11.87;;
22894;SDS011;11614;52.494;6.976;2023-10-31T01:48:02;20.83;;;11.83;;
22894;SDS011;11614;52.494;6.976;2023-10-31T01:50:28;22.90;;;13.83;;
22894;SDS011;11614;52.494;6.976;2023-10-31T01:52:54;17.17;;;9.73;;
22894;SDS011;11614;52.494;6.976;2023-10-31T01:55:20;14.67;;;8.80;;
22894;SDS011;11614;52.494;6.976;2023-10-31T01:57:47;9.43;;;3.90;;
22894;SDS011;11614;52.494;6.976;2023-10-31T02:00:14;6.47;;;3.23;;
22894;SDS011;11614;52.494;6.976;2023-10-31T02:02:40;6.33;;;3.40;;
22894;SDS011;11614;52.494;6.976;2023-10-31T02:05:10;1.87;;;0.87;;
22894;SDS011;11614;52.494;6.976;2023-10-31T02:07:36;2.00;;;1.17;;
22894;SDS011;11614;52.494;6.976;2023-10-31T02:10:02;0.80;;;0.50;;
22894;SDS011;11614;52.494;6.976;2023-10-31T02:12:31;1.07;;;0.73;;
22894;SDS011;11614;52.494;6.976;2023-10-31T02:14:58;1.00;;;0.60;;
22894;SDS011;11614;52.494;6.976;2023-10-31T02:17:24;0.50;;;0.30;;
22894;SDS011;11614;52.494;6.976;2023-10-31T02:19:50;1.37;;;0.87;;
22894;SDS011;11614;52.494;6.976;2023-10-31T02:22:16;0.80;;;0.50;;
22894;SDS011;11614;52.494;6.976;2023-10-31T02:24:42;2.07;;;0.57;;
22894;SDS011;11614;52.494;6.976;2023-10-31T02:27:08;1.07;;;0.80;;
22894;SDS011;11614;52.494;6.976;2023-10-31T02:29:34;0.50;;;0.30;;
22894;SDS011;11614;52.494;6.976;2023-10-31T02:32:00;2.23;;;0.20;;
22894;SDS011;11614;52.494;6.976;2023-10-31T02:34:26;0.77;;;0.20;;
22894;SDS011;11614;52.494;6.976;2023-10-31T02:36:52;0.17;;;0.07;;
22894;SDS011;11614;52.494;6.976;2023-10-31T02:39:18;0.20;;;0.13;;
22894;SDS011;11614;52.494;6.976;2023-10-31T02:41:44;1.10;;;0.20;;
22894;SDS011;11614;52.494;6.976;2023-10-31T02:44:10;0.20;;;0.10;;
22894;SDS011;11614;52.494;6.976;2023-10-31T02:46:39;0.50;;;0.20;;
22894;SDS011;11614;52.494;6.976;2023-10-31T02:49:05;0.40;;;0.20;;
22894;SDS011;11614;52.494;6.976;2023-10-31T02:51:31;2.00;;;0.40;;
22894;SDS011;11614;52.494;6.976;2023-10-31T02:53:57;1.20;;;0.30;;
22894;SDS011;11614;52.494;6.976;2023-10-31T02:56:22;0.80;;;0.33;;
22894;SDS011;11614;52.494;6.976;2023-10-31T02:58:50;1.47;;;0.30;;
22894;SDS011;11614;52.494;6.976;2023-10-31T03:01:16;0.90;;;0.23;;
22894;SDS011;11614;52.494;6.976;2023-10-31T03:03:44;0.47;;;0.20;;
22894;SDS011;11614;52.494;6.976;2023-10-31T03:06:11;1.53;;;0.60;;
22894;SDS011;11614;52.494;6.976;2023-10-31T03:08:36;1.57;;;0.30;;
22894;SDS011;11614;52.494;6.976;2023-10-31T03:11:02;0.83;;;0.30;;
22894;SDS011;11614;52.494;6.976;2023-10-31T03:13:28;0.43;;;0.20;;
22894;SDS011;11614;52.494;6.976;2023-10-31T03:15:54;1.23;;;0.30;;
22894;SDS011;11614;52.494;6.976;2023-10-31T03:18:20;0.60;;;0.30;;
22894;SDS011;11614;52.494;6.976;2023-10-31T03:20:47;0.57;;;0.20;;
22894;SDS011;11614;52.494;6.976;2023-10-31T03:23:13;0.97;;;0.40;;
22894;SDS011;11614;52.494;6.976;2023-10-31T03:25:39;0.93;;;0.30;;
22894;SDS011;11614;52.494;6.976;2023-10-31T03:28:14;0.70;;;0.40;;
22894;SDS011;11614;52.494;6.976;2023-10-31T03:30:43;2.37;;;0.40;;
22894;SDS011;11614;52.494;6.976;2023-10-31T03:33:09;0.63;;;0.50;;
22894;SDS011;11614;52.494;6.976;2023-10-31T03:35:35;1.33;;;0.73;;
22894;SDS011;11614;52.494;6.976;2023-10-31T03:38:01;1.90;;;0.97;;
22894;SDS011;11614;52.494;6.976;2023-10-31T03:40:27;2.00;;;1.13;;
22894;SDS011;11614;52.494;6.976;2023-10-31T03:42:53;2.03;;;0.83;;
22894;SDS011;11614;52.494;6.976;2023-10-31T03:45:19;2.43;;;1.07;;
22894;SDS011;11614;52.494;6.976;2023-10-31T03:47:45;1.30;;;0.70;;
22894;SDS011;11614;52.494;6.976;2023-10-31T03:50:11;3.37;;;1.17;;
22894;SDS011;11614;52.494;6.976;2023-10-31T03:52:37;3.23;;;1.47;;
22894;SDS011;11614;52.494;6.976;2023-10-31T03:55:03;3.43;;;1.63;;
22894;SDS011;11614;52.494;6.976;2023-10-31T03:57:29;4.90;;;2.33;;
22894;SDS011;11614;52.494;6.976;2023-10-31T03:59:55;2.10;;;1.43;;
22894;SDS011;11614;52.494;6.976;2023-10-31T04:02:21;4.57;;;1.90;;
22894;SDS011;11614;52.494;6.976;2023-10-31T04:04:48;6.47;;;2.07;;
22894;SDS011;11614;52.494;6.976;2023-10-31T04:07:14;2.90;;;1.13;;
22894;SDS011;11614;52.494;6.976;2023-10-31T04:09:40;5.53;;;2.43;;
22894;SDS011;11614;52.494;6.976;2023-10-31T04:12:06;3.13;;;1.67;;
22894;SDS011;11614;52.494;6.976;2023-10-31T04:14:32;2.50;;;1.03;;
22894;SDS011;11614;52.494;6.976;2023-10-31T04:16:58;3.03;;;1.37;;
22894;SDS011;11614;52.494;6.976;2023-10-31T04:19:24;2.73;;;1.67;;
22894;SDS011;11614;52.494;6.976;2023-10-31T04:21:50;4.40;;;2.03;;
22894;SDS011;11614;52.494;6.976;2023-10-31T04:24:16;6.57;;;4.17;;
22894;SDS011;11614;52.494;6.976;2023-10-31T04:26:42;5.07;;;2.97;;
22894;SDS011;11614;52.494;6.976;2023-10-31T04:29:08;7.60;;;4.13;;
22894;SDS011;11614;52.494;6.976;2023-10-31T04:31:33;8.17;;;3.67;;
22894;SDS011;11614;52.494;6.976;2023-10-31T04:33:59;9.23;;;3.70;;
22894;SDS011;11614;52.494;6.976;2023-10-31T04:36:25;7.07;;;4.07;;
22894;SDS011;11614;52.494;6.976;2023-10-31T04:38:51;9.87;;;5.83;;
22894;SDS011;11614;52.494;6.976;2023-10-31T04:41:16;9.13;;;5.40;;
22894;SDS011;11614;52.494;6.976;2023-10-31T04:43:42;13.07;;;6.80;;
22894;SDS011;11614;52.494;6.976;2023-10-31T04:46:08;11.33;;;6.20;;
22894;SDS011;11614;52.494;6.976;2023-10-31T04:48:34;7.73;;;3.93;;
22894;SDS011;11614;52.494;6.976;2023-10-31T04:51:00;11.67;;;7.33;;
22894;SDS011;11614;52.494;6.976;2023-10-31T04:53:26;10.03;;;5.80;;
22894;SDS011;11614;52.494;6.976;2023-10-31T04:55:52;10.80;;;6.90;;
22894;SDS011;11614;52.494;6.976;2023-10-31T04:58:18;8.67;;;4.17;;
22894;SDS011;11614;52.494;6.976;2023-10-31T05:00:44;10.73;;;5.57;;
22894;SDS011;11614;52.494;6.976;2023-10-31T05:03:10;9.47;;;5.47;;
22894;SDS011;11614;52.494;6.976;2023-10-31T05:05:36;11.07;;;6.30;;
22894;SDS011;11614;52.494;6.976;2023-10-31T05:08:02;10.07;;;6.70;;
22894;SDS011;11614;52.494;6.976;2023-10-31T05:10:28;12.60;;;7.47;;
22894;SDS011;11614;52.494;6.976;2023-10-31T05:12:55;10.30;;;5.30;;
22894;SDS011;11614;52.494;6.976;2023-10-31T05:15:22;12.10;;;5.67;;
22894;SDS011;11614;52.494;6.976;2023-10-31T05:17:48;9.03;;;3.53;;
22894;SDS011;11614;52.494;6.976;2023-10-31T05:20:14;10.63;;;6.27;;
22894;SDS011;11614;52.494;6.976;2023-10-31T05:22:40;6.37;;;4.87;;
22894;SDS011;11614;52.494;6.976;2023-10-31T05:25:06;9.30;;;5.73;;
22894;SDS011;11614;52.494;6.976;2023-10-31T05:27:32;10.17;;;6.53;;
22894;SDS011;11614;52.494;6.976;2023-10-31T05:29:58;6.83;;;3.67;;
22894;SDS011;11614;52.494;6.976;2023-10-31T05:32:24;8.47;;;3.30;;
22894;SDS011;11614;52.494;6.976;2023-10-31T05:34:50;9.77;;;4.73;;
22894;SDS011;11614;52.494;6.976;2023-10-31T05:37:16;8.63;;;5.23;;
22894;SDS011;11614;52.494;6.976;2023-10-31T05:39:41;7.77;;;4.43;;
22894;SDS011;11614;52.494;6.976;2023-10-31T05:42:07;8.20;;;4.50;;
22894;SDS011;11614;52.494;6.976;2023-10-31T05:44:33;8.37;;;4.07;;
22894;SDS011;11614;52.494;6.976;2023-10-31T05:46:59;6.17;;;3.53;;
22894;SDS011;11614;52.494;6.976;2023-10-31T05:49:25;6.37;;;3.83;;
22894;SDS011;11614;52.494;6.976;2023-10-31T05:51:51;4.10;;;2.17;;
22894;SDS011;11614;52.494;6.976;2023-10-31T05:54:17;4.50;;;2.07;;
22894;SDS011;11614;52.494;6.976;2023-10-31T05:56:44;5.43;;;2.33;;
22894;SDS011;11614;52.494;6.976;2023-10-31T05:59:12;8.83;;;4.07;;
22894;SDS011;11614;52.494;6.976;2023-10-31T06:01:38;5.57;;;2.63;;
22894;SDS011;11614;52.494;6.976;2023-10-31T06:04:04;6.33;;;3.37;;
22894;SDS011;11614;52.494;6.976;2023-10-31T06:06:32;8.57;;;3.93;;
22894;SDS011;11614;52.494;6.976;2023-10-31T06:08:58;4.63;;;2.80;;
22894;SDS011;11614;52.494;6.976;2023-10-31T06:11:24;5.80;;;2.70;;
22894;SDS011;11614;52.494;6.976;2023-10-31T06:13:51;8.10;;;3.93;;
22894;SDS011;11614;52.494;6.976;2023-10-31T06:16:17;6.97;;;2.83;;
22894;SDS011;11614;52.494;6.976;2023-10-31T06:18:43;9.60;;;4.07;;
22894;SDS011;11614;52.494;6.976;2023-10-31T06:21:09;7.07;;;3.70;;
22894;SDS011;11614;52.494;6.976;2023-10-31T06:23:38;7.50;;;3.97;;
22894;SDS011;11614;52.494;6.976;2023-10-31T06:26:04;5.47;;;3.33;;
22894;SDS011;11614;52.494;6.976;2023-10-31T06:28:30;10.40;;;5.07;;
22894;SDS011;11614;52.494;6.976;2023-10-31T06:30:59;7.47;;;4.10;;
22894;SDS011;11614;52.494;6.976;2023-10-31T06:33:25;8.03;;;3.80;;
22894;SDS011;11614;52.494;6.976;2023-10-31T06:35:51;6.33;;;3.60;;
22894;SDS011;11614;52.494;6.976;2023-10-31T06:38:18;7.13;;;4.40;;
22894;SDS011;11614;52.494;6.976;2023-10-31T06:40:45;3.97;;;1.77;;
22894;SDS011;11614;52.494;6.976;2023-10-31T06:43:11;7.30;;;3.63;;
22894;SDS011;11614;52.494;6.976;2023-10-31T06:45:37;5.57;;;2.27;;
22894;SDS011;11614;52.494;6.976;2023-10-31T06:48:02;5.70;;;3.33;;
22894;SDS011;11614;52.494;6.976;2023-10-31T06:50:28;5.33;;;2.93;;
22894;SDS011;11614;52.494;6.976;2023-10-31T06:52:54;7.37;;;2.70;;
22894;SDS011;11614;52.494;6.976;2023-10-31T06:55:20;5.63;;;2.60;;
22894;SDS011;11614;52.494;6.976;2023-10-31T06:57:46;4.83;;;2.53;;
22894;SDS011;11614;52.494;6.976;2023-10-31T07:00:12;5.73;;;2.40;;
22894;SDS011;11614;52.494;6.976;2023-10-31T07:02:38;3.60;;;1.87;;
22894;SDS011;11614;52.494;6.976;2023-10-31T07:05:05;2.87;;;1.50;;
22894;SDS011;11614;52.494;6.976;2023-10-31T07:07:31;5.07;;;2.43;;
22894;SDS011;11614;52.494;6.976;2023-10-31T07:09:57;4.17;;;2.13;;
22894;SDS011;11614;52.494;6.976;2023-10-31T07:12:23;5.57;;;1.90;;
22894;SDS011;11614;52.494;6.976;2023-10-31T07:14:49;5.77;;;2.30;;
22894;SDS011;11614;52.494;6.976;2023-10-31T07:17:15;2.37;;;1.07;;
22894;SDS011;11614;52.494;6.976;2023-10-31T07:19:40;6.83;;;1.73;;
22894;SDS011;11614;52.494;6.976;2023-10-31T07:22:06;4.57;;;1.80;;
22894;SDS011;11614;52.494;6.976;2023-10-31T07:24:32;3.30;;;1.20;;
22894;SDS011;11614;52.494;6.976;2023-10-31T07:26:59;3.53;;;1.90;;
22894;SDS011;11614;52.494;6.976;2023-10-31T07:29:25;2.17;;;0.87;;
22894;SDS011;11614;52.494;6.976;2023-10-31T07:31:50;1.97;;;1.00;;
22894;SDS011;11614;52.494;6.976;2023-10-31T07:34:16;3.20;;;0.80;;
22894;SDS011;11614;52.494;6.976;2023-10-31T07:36:42;2.40;;;1.03;;
22894;SDS011;11614;52.494;6.976;2023-10-31T07:39:08;2.97;;;0.80;;
22894;SDS011;11614;52.494;6.976;2023-10-31T07:41:34;3.40;;;1.17;;
22894;SDS011;11614;52.494;6.976;2023-10-31T07:44:00;1.10;;;0.63;;
22894;SDS011;11614;52.494;6.976;2023-10-31T07:46:26;4.33;;;1.10;;
22894;SDS011;11614;52.494;6.976;2023-10-31T07:48:52;2.03;;;0.83;;
22894;SDS011;11614;52.494;6.976;2023-10-31T07:51:18;3.00;;;1.13;;
22894;SDS011;11614;52.494;6.976;2023-10-31T07:53:44;3.97;;;0.87;;
22894;SDS011;11614;52.494;6.976;2023-10-31T07:56:17;1.93;;;0.80;;
22894;SDS011;11614;52.494;6.976;2023-10-31T07:58:48;1.90;;;1.03;;
22894;SDS011;11614;52.494;6.976;2023-10-31T08:01:14;2.13;;;1.10;;
22894;SDS011;11614;52.494;6.976;2023-10-31T08:03:40;3.13;;;0.60;;
22894;SDS011;11614;52.494;6.976;2023-10-31T08:06:06;1.40;;;0.50;;
22894;SDS011;11614;52.494;6.976;2023-10-31T08:08:33;1.70;;;0.83;;
22894;SDS011;11614;52.494;6.976;2023-10-31T08:10:59;0.63;;;0.40;;
22894;SDS011;11614;52.494;6.976;2023-10-31T08:13:25;4.03;;;0.90;;
22894;SDS011;11614;52.494;6.976;2023-10-31T08:15:51;0.70;;;0.50;;
22894;SDS011;11614;52.494;6.976;2023-10-31T08:18:17;2.67;;;0.90;;
22894;SDS011;11614;52.494;6.976;2023-10-31T08:20:43;2.40;;;0.80;;
22894;SDS011;11614;52.494;6.976;2023-10-31T08:23:11;1.83;;;0.57;;
22894;SDS011;11614;52.494;6.976;2023-10-31T08:25:37;0.97;;;0.53;;
22894;SDS011;11614;52.494;6.976;2023-10-31T08:28:03;2.30;;;1.10;;
22894;SDS011;11614;52.494;6.976;2023-10-31T08:30:29;4.00;;;1.20;;
22894;SDS011;11614;52.494;6.976;2023-10-31T08:32:55;3.33;;;0.80;;
22894;SDS011;11614;52.494;6.976;2023-10-31T08:35:21;1.43;;;0.80;;
22894;SDS011;11614;52.494;6.976;2023-10-31T08:37:47;3.40;;;1.50;;
22894;SDS011;11614;52.494;6.976;2023-10-31T08:40:13;1.60;;;0.97;;
22894;SDS011;11614;52.494;6.976;2023-10-31T08:42:39;3.00;;;1.40;;
22894;SDS011;11614;52.494;6.976;2023-10-31T08:45:06;2.57;;;1.40;;
22894;SDS011;11614;52.494;6.976;2023-10-31T08:47:32;1.20;;;0.73;;
22894;SDS011;11614;52.494;6.976;2023-10-31T08:49:59;2.97;;;0.80;;
22894;SDS011;11614;52.494;6.976;2023-10-31T08:52:24;2.13;;;1.00;;
22894;SDS011;11614;52.494;6.976;2023-10-31T08:54:50;2.07;;;1.10;;
22894;SDS011;11614;52.494;6.976;2023-10-31T08:57:16;2.27;;;1.00;;
22894;SDS011;11614;52.494;6.976;2023-10-31T08:59:42;5.30;;;1.27;;
22894;SDS011;11614;52.494;6.976;2023-10-31T09:02:08;2.53;;;1.20;;
22894;SDS011;11614;52.494;6.976;2023-10-31T09:04:34;3.20;;;1.00;;
22894;SDS011;11614;52.494;6.976;2023-10-31T09:07:00;1.73;;;0.77;;
22894;SDS011;11614;52.494;6.976;2023-10-31T09:09:27;2.23;;;1.20;;
22894;SDS011;11614;52.494;6.976;2023-10-31T09:11:53;2.83;;;1.17;;
22894;SDS011;11614;52.494;6.976;2023-10-31T09:14:19;3.20;;;1.43;;
22894;SDS011;11614;52.494;6.976;2023-10-31T09:16:45;2.30;;;1.00;;
22894;SDS011;11614;52.494;6.976;2023-10-31T09:19:11;1.47;;;1.00;;
22894;SDS011;11614;52.494;6.976;2023-10-31T09:21:38;2.10;;;1.30;;
22894;SDS011;11614;52.494;6.976;2023-10-31T09:24:04;3.23;;;2.10;;
22894;SDS011;11614;52.494;6.976;2023-10-31T09:26:30;3.00;;;1.20;;
22894;SDS011;11614;52.494;6.976;2023-10-31T09:28:56;3.40;;;2.10;;
22894;SDS011;11614;52.494;6.976;2023-10-31T09:31:22;2.93;;;1.70;;
22894;SDS011;11614;52.494;6.976;2023-10-31T09:33:48;2.17;;;1.40;;
22894;SDS011;11614;52.494;6.976;2023-10-31T09:36:14;2.67;;;1.50;;
22894;SDS011;11614;52.494;6.976;2023-10-31T09:38:40;1.67;;;1.40;;
22894;SDS011;11614;52.494;6.976;2023-10-31T09:41:06;2.40;;;1.20;;
22894;SDS011;11614;52.494;6.976;2023-10-31T09:43:32;1.80;;;1.20;;
22894;SDS011;11614;52.494;6.976;2023-10-31T09:45:58;2.10;;;0.90;;
22894;SDS011;11614;52.494;6.976;2023-10-31T09:48:28;3.83;;;1.87;;
22894;SDS011;11614;52.494;6.976;2023-10-31T09:50:54;3.67;;;1.93;;
22894;SDS011;11614;52.494;6.976;2023-10-31T09:53:21;2.10;;;1.40;;
22894;SDS011;11614;52.494;6.976;2023-10-31T09:55:47;2.60;;;1.47;;
22894;SDS011;11614;52.494;6.976;2023-10-31T09:58:13;3.63;;;1.80;;
22894;SDS011;11614;52.494;6.976;2023-10-31T10:00:39;4.50;;;2.80;;
22894;SDS011;11614;52.494;6.976;2023-10-31T10:03:08;3.87;;;1.90;;
22894;SDS011;11614;52.494;6.976;2023-10-31T10:05:35;2.10;;;1.30;;
22894;SDS011;11614;52.494;6.976;2023-10-31T10:08:01;3.70;;;2.10;;
22894;SDS011;11614;52.494;6.976;2023-10-31T10:10:27;2.67;;;1.90;;
22894;SDS011;11614;52.494;6.976;2023-10-31T10:12:55;4.47;;;1.57;;
22894;SDS011;11614;52.494;6.976;2023-10-31T10:15:21;4.73;;;1.50;;
22894;SDS011;11614;52.494;6.976;2023-10-31T10:17:53;2.63;;;1.50;;
22894;SDS011;11614;52.494;6.976;2023-10-31T10:20:18;2.87;;;1.80;;
22894;SDS011;11614;52.494;6.976;2023-10-31T10:22:44;4.53;;;2.47;;
22894;SDS011;11614;52.494;6.976;2023-10-31T10:25:12;3.80;;;2.50;;
22894;SDS011;11614;52.494;6.976;2023-10-31T10:27:39;2.53;;;1.50;;
22894;SDS011;11614;52.494;6.976;2023-10-31T10:30:07;4.73;;;1.90;;
22894;SDS011;11614;52.494;6.976;2023-10-31T10:32:34;1.80;;;1.30;;
22894;SDS011;11614;52.494;6.976;2023-10-31T10:35:00;1.97;;;1.00;;
22894;SDS011;11614;52.494;6.976;2023-10-31T10:37:29;5.37;;;2.10;;
22894;SDS011;11614;52.494;6.976;2023-10-31T10:39:55;3.23;;;1.63;;
22894;SDS011;11614;52.494;6.976;2023-10-31T10:42:31;1.47;;;1.27;;
22894;SDS011;11614;52.494;6.976;2023-10-31T10:45:04;3.33;;;1.90;;
22894;SDS011;11614;52.494;6.976;2023-10-31T10:47:33;2.30;;;1.30;;
22894;SDS011;11614;52.494;6.976;2023-10-31T10:50:03;1.90;;;1.00;;
22894;SDS011;11614;52.494;6.976;2023-10-31T10:52:35;2.53;;;1.20;;
22894;SDS011;11614;52.494;6.976;2023-10-31T10:55:08;2.70;;;1.00;;
22894;SDS011;11614;52.494;6.976;2023-10-31T10:57:56;1.60;;;1.00;;
22894;SDS011;11614;52.494;6.976;2023-10-31T11:00:25;2.00;;;0.90;;
22894;SDS011;11614;52.494;6.976;2023-10-31T11:02:55;3.27;;;1.07;;
22894;SDS011;11614;52.494;6.976;2023-10-31T11:05:22;1.13;;;0.60;;
22894;SDS011;11614;52.494;6.976;2023-10-31T11:07:48;1.53;;;0.50;;
22894;SDS011;11614;52.494;6.976;2023-10-31T11:10:15;3.10;;;0.83;;
22894;SDS011;11614;52.494;6.976;2023-10-31T11:12:42;2.40;;;0.80;;
22894;SDS011;11614;52.494;6.976;2023-10-31T11:15:09;3.08;;;0.70;;
22894;SDS011;11614;52.494;6.976;2023-10-31T11:17:39;0.65;;;0.40;;
22894;SDS011;11614;52.494;6.976;2023-10-31T11:20:07;1.58;;;0.55;;
22894;SDS011;11614;52.494;6.976;2023-10-31T11:22:40;1.48;;;0.65;;
22894;SDS011;11614;52.494;6.976;2023-10-31T11:25:10;0.85;;;0.63;;
22894;SDS011;11614;52.494;6.976;2023-10-31T11:27:36;2.92;;;0.80;;
22894;SDS011;11614;52.494;6.976;2023-10-31T11:30:08;2.45;;;0.70;;
22894;SDS011;11614;52.494;6.976;2023-10-31T11:32:51;0.52;;;0.47;;
22894;SDS011;11614;52.494;6.976;2023-10-31T11:35:17;1.50;;;0.63;;
22894;SDS011;11614;52.494;6.976;2023-10-31T11:37:45;1.95;;;1.08;;
22894;SDS011;11614;52.494;6.976;2023-10-31T11:42:43;1.20;;;0.95;;
22894;SDS011;11614;52.494;6.976;2023-10-31T11:45:09;2.53;;;0.52;;
22894;SDS011;11614;52.494;6.976;2023-10-31T11:47:51;2.00;;;0.60;;
22894;SDS011;11614;52.494;6.976;2023-10-31T11:50:17;1.20;;;0.50;;
22894;SDS011;11614;52.494;6.976;2023-10-31T11:52:43;2.03;;;0.60;;
22894;SDS011;11614;52.494;6.976;2023-10-31T11:55:09;1.10;;;0.65;;
22894;SDS011;11614;52.494;6.976;2023-10-31T11:57:35;1.45;;;0.68;;
22894;SDS011;11614;52.494;6.976;2023-10-31T12:00:02;0.43;;;0.40;;
22894;SDS011;11614;52.494;6.976;2023-10-31T12:02:29;2.28;;;0.30;;
22894;SDS011;11614;52.494;6.976;2023-10-31T12:05:10;1.05;;;0.47;;
22894;SDS011;11614;52.494;6.976;2023-10-31T12:07:55;1.05;;;0.57;;
22894;SDS011;11614;52.494;6.976;2023-10-31T12:10:23;0.30;;;0.30;;
22894;SDS011;11614;52.494;6.976;2023-10-31T12:12:49;1.83;;;1.13;;
22894;SDS011;11614;52.494;6.976;2023-10-31T12:15:15;1.15;;;0.65;;
22894;SDS011;11614;52.494;6.976;2023-10-31T12:17:41;0.80;;;0.30;;
22894;SDS011;11614;52.494;6.976;2023-10-31T12:20:08;2.20;;;0.40;;
22894;SDS011;11614;52.494;6.976;2023-10-31T12:22:34;1.27;;;0.63;;
22894;SDS011;11614;52.494;6.976;2023-10-31T12:25:03;0.88;;;0.80;;
22894;SDS011;11614;52.494;6.976;2023-10-31T12:27:42;0.80;;;0.60;;
22894;SDS011;11614;52.494;6.976;2023-10-31T12:30:12;0.65;;;0.50;;
22894;SDS011;11614;52.494;6.976;2023-10-31T12:32:41;1.70;;;0.50;;
22894;SDS011;11614;52.494;6.976;2023-10-31T12:35:08;1.20;;;0.60;;
22894;SDS011;11614;52.494;6.976;2023-10-31T12:37:41;1.52;;;0.70;;
22894;SDS011;11614;52.494;6.976;2023-10-31T12:40:07;1.45;;;0.40;;
22894;SDS011;11614;52.494;6.976;2023-10-31T12:42:34;1.02;;;0.50;;
22894;SDS011;11614;52.494;6.976;2023-10-31T12:45:00;0.52;;;0.52;;
22894;SDS011;11614;52.494;6.976;2023-10-31T12:47:26;1.25;;;0.80;;
22894;SDS011;11614;52.494;6.976;2023-10-31T12:50:08;0.35;;;0.32;;
22894;SDS011;11614;52.494;6.976;2023-10-31T12:52:50;0.90;;;0.50;;
22894;SDS011;11614;52.494;6.976;2023-10-31T12:55:17;1.00;;;0.38;;
22894;SDS011;11614;52.494;6.976;2023-10-31T12:57:43;1.13;;;0.52;;
22894;SDS011;11614;52.494;6.976;2023-10-31T13:00:11;1.67;;;0.82;;
22894;SDS011;11614;52.494;6.976;2023-10-31T13:02:38;0.30;;;0.30;;
22894;SDS011;11614;52.494;6.976;2023-10-31T13:05:14;0.77;;;0.22;;
22894;SDS011;11614;52.494;6.976;2023-10-31T13:07:49;0.80;;;0.50;;
22894;SDS011;11614;52.494;6.976;2023-10-31T13:10:17;0.70;;;0.40;;
22894;SDS011;11614;52.494;6.976;2023-10-31T13:12:44;0.47;;;0.45;;
22894;SDS011;11614;52.494;6.976;2023-10-31T13:15:11;1.17;;;0.98;;
22894;SDS011;11614;52.494;6.976;2023-10-31T13:17:38;0.55;;;0.40;;
22894;SDS011;11614;52.494;6.976;2023-10-31T13:20:06;0.60;;;0.25;;
22894;SDS011;11614;52.494;6.976;2023-10-31T13:22:34;2.08;;;0.73;;
22894;SDS011;11614;52.494;6.976;2023-10-31T13:25:00;0.30;;;0.30;;
22894;SDS011;11614;52.494;6.976;2023-10-31T13:27:26;0.47;;;0.40;;
22894;SDS011;11614;52.494;6.976;2023-10-31T13:29:53;1.60;;;0.60;;
22894;SDS011;11614;52.494;6.976;2023-10-31T13:32:19;1.42;;;0.30;;
22894;SDS011;11614;52.494;6.976;2023-10-31T13:34:45;2.00;;;0.60;;
22894;SDS011;11614;52.494;6.976;2023-10-31T13:37:11;2.10;;;0.90;;
22894;SDS011;11614;52.494;6.976;2023-10-31T13:39:37;1.38;;;0.60;;
22894;SDS011;11614;52.494;6.976;2023-10-31T13:42:03;1.35;;;0.63;;
22894;SDS011;11614;52.494;6.976;2023-10-31T13:44:29;1.98;;;0.80;;
22894;SDS011;11614;52.494;6.976;2023-10-31T13:46:55;2.90;;;0.70;;
22894;SDS011;11614;52.494;6.976;2023-10-31T13:49:21;1.65;;;0.70;;
22894;SDS011;11614;52.494;6.976;2023-10-31T13:51:47;1.55;;;0.52;;
22894;SDS011;11614;52.494;6.976;2023-10-31T13:54:14;0.38;;;0.35;;
22894;SDS011;11614;52.494;6.976;2023-10-31T13:56:40;1.08;;;0.43;;
22894;SDS011;11614;52.494;6.976;2023-10-31T13:59:06;2.00;;;1.10;;
22894;SDS011;11614;52.494;6.976;2023-10-31T14:01:32;1.02;;;0.60;;
22894;SDS011;11614;52.494;6.976;2023-10-31T14:03:58;1.13;;;0.70;;
22894;SDS011;11614;52.494;6.976;2023-10-31T14:06:24;1.75;;;0.70;;
22894;SDS011;11614;52.494;6.976;2023-10-31T14:08:55;0.70;;;0.47;;
22894;SDS011;11614;52.494;6.976;2023-10-31T14:11:21;1.65;;;0.52;;
22894;SDS011;11614;52.494;6.976;2023-10-31T14:13:47;2.05;;;0.50;;
22894;SDS011;11614;52.494;6.976;2023-10-31T14:16:15;1.65;;;0.40;;
22894;SDS011;11614;52.494;6.976;2023-10-31T14:18:41;2.08;;;0.60;;
22894;SDS011;11614;52.494;6.976;2023-10-31T14:21:07;3.00;;;0.75;;
22894;SDS011;11614;52.494;6.976;2023-10-31T14:23:34;1.92;;;0.65;;
22894;SDS011;11614;52.494;6.976;2023-10-31T14:26:00;2.00;;;0.70;;
22894;SDS011;11614;52.494;6.976;2023-10-31T14:28:26;1.07;;;0.40;;
22894;SDS011;11614;52.494;6.976;2023-10-31T14:30:52;3.17;;;0.83;;
22894;SDS011;11614;52.494;6.976;2023-10-31T14:33:18;1.23;;;0.53;;
22894;SDS011;11614;52.494;6.976;2023-10-31T14:35:44;0.90;;;0.50;;
22894;SDS011;11614;52.494;6.976;2023-10-31T14:38:11;0.47;;;0.20;;
22894;SDS011;11614;52.494;6.976;2023-10-31T14:40:37;3.70;;;0.50;;
22894;SDS011;11614;52.494;6.976;2023-10-31T14:43:03;1.00;;;0.40;;